Terminal Aerodrome Forecast
Issued by NWS

Home | Current Version | Previous Version | Text Only | Print | Product List | Glossary On
Versions: 1 2 3 4 5 6 7 8 9 10 11 12 13 14 15 16 17 18
000
FTUS44 KEPZ 271300 AAA
TAFTCS
TAF AMD
KTCS 271344Z 2714/2812 36006KT P6SM BKN005 OVC010
     FM271600 16011KT P6SM SCT010 SCT250
     FM272100 19008KT P6SM SCT140 BKN250=

USA.gov is the U.S. government's official web portal to all federal, state and local government web resources and services.